createdAt,value
2023-02-15T00:02:12.454Z,98754.69
2023-02-15T00:04:58.145Z,98749.59
2023-02-15T00:07:44.190Z,98744.38
2023-02-15T00:10:29.859Z,98749.72
2023-02-15T00:13:15.626Z,98749.13
2023-02-15T00:16:05.318Z,98748.41
2023-02-15T00:18:53.293Z,98743.47
2023-02-15T00:21:40.154Z,98740.03
2023-02-15T00:24:26.056Z,98746.31
2023-02-15T00:27:11.250Z,98749.78
2023-02-15T00:29:58.295Z,98739.47
2023-02-15T00:32:43.938Z,98738.50
2023-02-15T00:35:30.912Z,98738.63
2023-02-15T00:38:16.602Z,98745.63
2023-02-15T00:41:04.573Z,98743.13
2023-02-15T00:43:50.225Z,98732.25
2023-02-15T00:46:36.383Z,98730.03
2023-02-15T00:49:21.925Z,98729.34
2023-02-15T00:52:07.932Z,98734.66
2023-02-15T00:54:54.619Z,98729.34
2023-02-15T00:57:40.153Z,98731.09
2023-02-15T01:00:25.620Z,98730.16
2023-02-15T01:03:12.030Z,98714.66
2023-02-15T01:05:57.729Z,98719.16
2023-02-15T01:08:44.985Z,98713.34
2023-02-15T01:11:30.543Z,98721.44
2023-02-15T01:14:16.768Z,98713.72
2023-02-15T01:17:02.050Z,98722.50
2023-02-15T01:19:47.478Z,98722.75
2023-02-15T01:22:33.491Z,98713.63
2023-02-15T01:25:22.386Z,98707.88
2023-02-15T01:28:07.697Z,98705.38
2023-02-15T01:30:53.950Z,98701.09
2023-02-15T01:33:39.670Z,98694.38
2023-02-15T01:36:25.111Z,98692.59
2023-02-15T01:39:12.492Z,98686.69
2023-02-15T01:41:58.447Z,98688.56
2023-02-15T01:44:59.549Z,98681.59
2023-02-15T01:47:49.052Z,98683.38
2023-02-15T01:50:37.860Z,98674.97
2023-02-15T01:53:53.973Z,98675.09
2023-02-15T01:56:41.979Z,98675.94
2023-02-15T01:59:29.706Z,98675.94
2023-02-15T02:02:19.114Z,98674.97
2023-02-15T02:05:07.916Z,98674.97
2023-02-15T02:07:56.061Z,98661.94
2023-02-15T02:10:41.725Z,98659.25
2023-02-15T02:13:27.660Z,98667.88
2023-02-15T02:16:38.089Z,98662.66
2023-02-15T02:19:45.337Z,98658.31
2023-02-15T02:22:59.258Z,98667.16
2023-02-15T02:26:11.691Z,98658.66
2023-02-15T02:29:20.972Z,98662.22
2023-02-15T02:32:38.128Z,98653.69
2023-02-15T02:35:48.155Z,98656.28
2023-02-15T02:38:49.251Z,98653.00
2023-02-15T02:42:06.992Z,98650.41
2023-02-15T02:45:01.698Z,98645.19
2023-02-15T02:47:59.386Z,98645.19
2023-02-15T02:50:45.003Z,98636.66
2023-02-15T02:53:32.580Z,98634.19
2023-02-15T02:56:26.948Z,98631.00
2023-02-15T02:59:19.695Z,98626.03
2023-02-15T03:02:14.175Z,98622.50
2023-02-15T03:05:07.358Z,98625.09
2023-02-15T03:07:55.659Z,98621.53
2023-02-15T03:10:42.607Z,98625.66
2023-02-15T03:13:29.564Z,98627.31
2023-02-15T03:16:27.380Z,98622.22
2023-02-15T03:19:18.871Z,98622.22
2023-02-15T03:22:14.977Z,98617.16
2023-02-15T03:25:12.414Z,98618.81
2023-02-15T03:28:04.738Z,98622.22
2023-02-15T03:30:57.000Z,98618.00
2023-02-15T03:33:50.963Z,98619.63
2023-02-15T03:36:36.339Z,98616.91
2023-02-15T03:39:27.831Z,98618.56
2023-02-15T03:42:37.259Z,98622.00
2023-02-15T03:45:29.384Z,98619.38
2023-02-15T03:48:15.854Z,98624.00
2023-02-15T03:51:25.454Z,98622.34
2023-02-15T03:54:39.399Z,98625.09
2023-02-15T03:57:48.121Z,98634.69
2023-02-15T04:00:57.585Z,98628.91
2023-02-15T04:04:01.345Z,98628.91
2023-02-15T04:06:48.275Z,98630.53
2023-02-15T04:09:52.458Z,98635.72
2023-02-15T04:12:38.260Z,98634.09
2023-02-15T04:15:42.560Z,98639.41
2023-02-15T04:18:46.928Z,98637.06
2023-02-15T04:21:51.655Z,98630.19
2023-02-15T04:24:55.925Z,98627.84
2023-02-15T04:27:48.247Z,98629.63
2023-02-15T04:30:33.883Z,98618.25
2023-02-15T04:33:19.584Z,98615.66
2023-02-15T04:36:06.299Z,98615.66
2023-02-15T04:38:52.006Z,98620.88
2023-02-15T04:41:38.001Z,98619.91
2023-02-15T04:44:23.812Z,98615.66
2023-02-15T04:47:09.351Z,98622.75
2023-02-15T04:49:56.331Z,98605.03
2023-02-15T04:52:43.442Z,98614.72
2023-02-15T04:55:29.051Z,98607.88
2023-02-15T04:58:14.698Z,98604.31
2023-02-15T05:01:01.226Z,98610.94
2023-02-15T05:03:46.970Z,98609.03
2023-02-15T05:06:33.143Z,98606.56
2023-02-15T05:09:18.574Z,98603.38
2023-02-15T05:12:04.821Z,98603.50
2023-02-15T05:14:50.520Z,98605.38
2023-02-15T05:17:36.255Z,98603.75
2023-02-15T05:20:21.789Z,98596.19
2023-02-15T05:23:07.472Z,98592.19
2023-02-15T05:26:12.185Z,98591.34
2023-02-15T05:28:58.350Z,98593.94
2023-02-15T05:31:48.374Z,98597.38
2023-02-15T05:34:34.393Z,98598.19
2023-02-15T05:37:20.167Z,98600.00
2023-02-15T05:40:06.496Z,98602.59
2023-02-15T05:42:52.519Z,98608.59
2023-02-15T05:45:38.331Z,98615.47
2023-02-15T05:48:26.261Z,98595.47
2023-02-15T05:51:14.439Z,98603.19
2023-02-15T05:54:00.062Z,98607.53
2023-02-15T05:56:45.837Z,98607.78
2023-02-15T05:59:31.931Z,98614.06
2023-02-15T06:02:17.773Z,98612.41
2023-02-15T06:05:05.487Z,98615.00
2023-02-15T06:07:51.307Z,98620.22
2023-02-15T06:10:37.130Z,98617.03
2023-02-15T06:13:23.040Z,98617.03
2023-02-15T06:16:09.034Z,98614.53
2023-02-15T06:18:55.122Z,98618.78
2023-02-15T06:21:40.444Z,98615.25
2023-02-15T06:24:26.017Z,98609.09
2023-02-15T06:27:11.620Z,98617.84
2023-02-15T06:29:57.512Z,98612.19
2023-02-15T06:32:43.335Z,98611.81
2023-02-15T06:35:28.782Z,98613.59
2023-02-15T06:38:14.719Z,98619.63
2023-02-15T06:41:00.543Z,98614.41
2023-02-15T06:43:45.765Z,98609.00
2023-02-15T06:46:31.165Z,98606.25
2023-02-15T06:49:16.756Z,98605.09
2023-02-15T06:52:02.487Z,98600.69
2023-02-15T06:54:48.384Z,98604.13
2023-02-15T06:57:34.629Z,98614.53
2023-02-15T07:00:20.685Z,98614.53
2023-02-15T07:03:06.666Z,98615.59
2023-02-15T07:05:57.317Z,98616.44
2023-02-15T07:08:42.921Z,98617.38
2023-02-15T07:11:47.348Z,98625.19
2023-02-15T07:14:33.112Z,98622.59
2023-02-15T07:17:35.127Z,98620.69
2023-02-15T07:20:23.453Z,98615.50
2023-02-15T07:23:09.695Z,98617.25
2023-02-15T07:26:01.798Z,98616.44
2023-02-15T07:28:47.770Z,98615.59
2023-02-15T07:31:33.506Z,98607.19
2023-02-15T07:34:19.702Z,98613.38
2023-02-15T07:37:05.738Z,98610.88
2023-02-15T07:39:51.674Z,98609.13
2023-02-15T07:42:37.908Z,98608.88
2023-02-15T07:45:24.101Z,98617.38
2023-02-15T07:48:09.688Z,98608.38
2023-02-15T07:50:55.735Z,98610.75
2023-02-15T07:53:42.171Z,98613.22
2023-02-15T07:56:28.278Z,98618.44
2023-02-15T07:59:14.442Z,98619.38
2023-02-15T08:02:00.403Z,98618.56
2023-02-15T08:04:46.546Z,98615.97
2023-02-15T08:07:32.286Z,98622.09
2023-02-15T08:10:38.105Z,98624.69
2023-02-15T08:13:23.834Z,98623.75
2023-02-15T08:16:10.514Z,98620.91
2023-02-15T08:18:59.070Z,98613.59
2023-02-15T08:21:48.372Z,98618.53
2023-02-15T08:24:37.987Z,98617.31
2023-02-15T08:27:28.077Z,98616.16
2023-02-15T08:30:15.408Z,98610.69
2023-02-15T08:33:00.804Z,98612.94
2023-02-15T08:35:46.410Z,98608.31
2023-02-15T08:38:33.651Z,98613.28
2023-02-15T08:41:26.862Z,98614.69
2023-02-15T08:44:13.322Z,98612.78
2023-02-15T08:47:05.214Z,98611.13
2023-02-15T08:49:52.501Z,98611.94
2023-02-15T08:52:37.849Z,98616.66
2023-02-15T08:55:23.500Z,98606.81
2023-02-15T08:58:09.344Z,98608.25
2023-02-15T09:00:55.668Z,98606.31
2023-02-15T09:03:42.070Z,98613.06
2023-02-15T09:06:28.722Z,98605.94
2023-02-15T09:09:15.430Z,98606.41
2023-02-15T09:12:01.274Z,98606.16
2023-02-15T09:14:46.804Z,98604.13
2023-02-15T09:17:32.587Z,98597.72
2023-02-15T09:20:18.779Z,98600.19
2023-02-15T09:23:04.787Z,98591.41
2023-02-15T09:25:53.665Z,98596.91
2023-02-15T09:28:40.341Z,98599.38
2023-02-15T09:31:29.159Z,98585.84
2023-02-15T09:34:18.112Z,98588.88
2023-02-15T09:37:03.920Z,98583.53
2023-02-15T09:39:49.924Z,98584.81
2023-02-15T09:42:54.179Z,98577.44
2023-02-15T09:49:56.496Z,98575.78
2023-02-15T09:53:10.818Z,98576.47
2023-02-15T09:56:15.106Z,98587.75
2023-02-15T09:59:39.486Z,98572.41
2023-02-15T10:02:52.959Z,98578.06
2023-02-15T10:06:16.883Z,98572.59
2023-02-15T10:09:16.428Z,98567.00
2023-02-15T10:12:39.836Z,98569.72
2023-02-15T10:15:54.908Z,98564.78
2023-02-15T10:18:56.743Z,98560.69
2023-02-15T10:22:11.936Z,98549.47
2023-02-15T10:25:42.833Z,98549.22
2023-02-15T10:28:52.727Z,98554.41
2023-02-15T10:31:41.800Z,98554.91
2023-02-15T10:34:36.895Z,98548.56
2023-02-15T10:37:41.127Z,98543.78
2023-02-15T10:40:44.865Z,98538.00
2023-02-15T10:44:01.691Z,98527.47
2023-02-15T10:47:05.607Z,98530.44
2023-02-15T10:50:11.705Z,98523.22
2023-02-15T10:53:19.918Z,98523.78
2023-02-15T10:56:08.962Z,98515.84
2023-02-15T10:58:57.368Z,98519.56
2023-02-15T11:01:54.471Z,98514.06
2023-02-15T11:04:47.934Z,98512.16
2023-02-15T11:07:39.383Z,98510.50
2023-02-15T11:10:28.028Z,98502.13
2023-02-15T11:13:18.295Z,98510.81
2023-02-15T11:16:18.393Z,98503.53
2023-02-15T11:19:15.297Z,98501.31
2023-02-15T11:22:04.872Z,98496.09
2023-02-15T11:24:50.828Z,98501.31
2023-02-15T11:27:38.307Z,98490.31
2023-02-15T11:30:29.000Z,98494.19
2023-02-15T11:33:27.946Z,98490.47
2023-02-15T11:36:19.640Z,98486.75
2023-02-15T11:39:18.796Z,98479.47
2023-02-15T11:42:13.737Z,98484.41
2023-02-15T11:45:24.698Z,98481.53
2023-02-15T11:48:13.168Z,98482.88
2023-02-15T11:50:59.569Z,98470.38
2023-02-15T11:53:47.133Z,98470.09
2023-02-15T11:56:34.228Z,98466.94
2023-02-15T11:59:31.178Z,98462.94
2023-02-15T12:02:20.127Z,98460.06
2023-02-15T12:05:20.472Z,98457.84
2023-02-15T12:08:16.515Z,98466.09
2023-02-15T12:11:09.252Z,98464.97
2023-02-15T12:13:57.543Z,98467.47
2023-02-15T12:16:49.756Z,98469.41
2023-02-15T12:19:41.636Z,98459.78
2023-02-15T12:22:31.661Z,98464.19
2023-02-15T12:25:46.747Z,98452.38
2023-02-15T12:29:19.019Z,98457.84
2023-02-15T12:32:05.668Z,98455.06
2023-02-15T12:34:56.862Z,98450.41
2023-02-15T12:37:55.174Z,98449.72
2023-02-15T12:40:41.290Z,98432.47
2023-02-15T12:43:36.349Z,98427.50
2023-02-15T12:46:22.069Z,98416.31
2023-02-15T12:49:10.942Z,98413.97
2023-02-15T12:52:02.319Z,98408.28
2023-02-15T12:54:48.677Z,98405.94
2023-02-15T12:57:35.106Z,98396.69
2023-02-15T13:00:20.138Z,98393.78
2023-02-15T13:03:06.048Z,98391.16
2023-02-15T13:05:54.319Z,98386.63
2023-02-15T13:08:51.384Z,98384.81
2023-02-15T13:11:38.593Z,98380.25
2023-02-15T13:14:24.307Z,98381.91
2023-02-15T13:17:12.547Z,98388.63
2023-02-15T13:20:05.791Z,98383.09
2023-02-15T13:22:57.252Z,98371.81
2023-02-15T13:25:51.349Z,98372.34
2023-02-15T13:28:43.539Z,98368.25
2023-02-15T13:31:33.734Z,98371.72
2023-02-15T13:34:27.112Z,98373.91
2023-02-15T13:37:27.197Z,98365.47
2023-02-15T13:40:16.682Z,98362.84
2023-02-15T13:43:47.077Z,98364.06
2023-02-15T13:46:57.517Z,98367.44
2023-02-15T13:49:49.442Z,98364.91
2023-02-15T13:52:47.478Z,98368.47
2023-02-15T13:55:52.647Z,98370.50
2023-02-15T13:58:46.824Z,98375.81
2023-02-15T14:01:51.664Z,98363.53
2023-02-15T14:05:02.315Z,98360.84
2023-02-15T14:08:12.967Z,98364.66
2023-02-15T14:11:08.073Z,98358.66
2023-02-15T14:14:30.793Z,98367.38
2023-02-15T14:17:46.299Z,98365.81
2023-02-15T14:21:06.498Z,98363.03
2023-02-15T14:24:00.933Z,98371.41
2023-02-15T14:27:05.306Z,98358.19
2023-02-15T14:29:57.105Z,98354.25
2023-02-15T14:32:55.199Z,98352.44
2023-02-15T14:35:41.777Z,98357.69
2023-02-15T14:38:58.047Z,98359.66
2023-02-15T14:41:54.135Z,98358.69
2023-02-15T14:44:54.335Z,98341.34
2023-02-15T14:47:45.452Z,98348.34
2023-02-15T14:50:31.051Z,98353.59
2023-02-15T14:53:17.637Z,98349.03
2023-02-15T14:56:08.322Z,98340.34
2023-02-15T14:58:53.993Z,98339.53
2023-02-15T15:01:41.319Z,98338.84
2023-02-15T15:04:45.294Z,98358.19
2023-02-15T15:07:38.344Z,98356.69
2023-02-15T15:10:24.306Z,98357.94
2023-02-15T15:13:31.397Z,98355.78
2023-02-15T15:16:35.995Z,98345.47
2023-02-15T15:19:51.508Z,98341.38
2023-02-15T15:22:38.325Z,98339.88
2023-02-15T15:25:40.208Z,98338.69
2023-02-15T15:28:35.163Z,98332.28
2023-02-15T15:31:26.793Z,98336.03
2023-02-15T15:35:11.984Z,98334.50
2023-02-15T15:38:42.264Z,98341.72
2023-02-15T15:41:30.684Z,98335.09
2023-02-15T15:44:28.192Z,98334.91
2023-02-15T15:48:05.213Z,98345.00
2023-02-15T15:50:58.115Z,98345.47
2023-02-15T15:53:49.966Z,98350.31
2023-02-15T15:56:37.242Z,98346.34
2023-02-15T15:59:29.145Z,98347.63
2023-02-15T16:02:18.187Z,98353.13
2023-02-15T16:05:09.739Z,98358.97
2023-02-15T16:07:55.632Z,98355.97
2023-02-15T16:10:41.843Z,98370.34
2023-02-15T16:13:28.014Z,98361.44
2023-02-15T16:16:22.432Z,98360.09
2023-02-15T16:19:21.116Z,98360.81
2023-02-15T16:22:14.839Z,98364.00
2023-02-15T16:25:19.592Z,98352.06
2023-02-15T16:28:11.929Z,98350.03
2023-02-15T16:31:24.601Z,98351.28
2023-02-15T16:34:21.480Z,98348.00
2023-02-15T16:37:34.713Z,98355.28
2023-02-15T16:40:29.210Z,98358.88
2023-02-15T16:43:19.453Z,98353.81
2023-02-15T16:46:08.209Z,98354.91
2023-02-15T16:48:57.124Z,98353.41
2023-02-15T16:51:45.964Z,98353.84
2023-02-15T16:54:32.486Z,98355.78
2023-02-15T16:57:24.511Z,98354.56
2023-02-15T17:00:24.037Z,98352.53
2023-02-15T17:03:12.886Z,98356.22
2023-02-15T17:06:01.049Z,98358.03
2023-02-15T17:08:47.192Z,98353.13
2023-02-15T17:11:44.118Z,98357.50
2023-02-15T17:14:32.126Z,98365.47
2023-02-15T17:17:17.529Z,98363.84
2023-02-15T17:20:04.178Z,98359.56
2023-02-15T17:22:49.765Z,98363.13
2023-02-15T17:25:43.635Z,98364.09
2023-02-15T17:28:31.870Z,98364.09
2023-02-15T17:31:19.708Z,98367.72
2023-02-15T17:34:05.938Z,98357.53
2023-02-15T17:37:00.518Z,98366.31
2023-02-15T17:39:46.562Z,98367.44
2023-02-15T17:42:32.281Z,98363.06
2023-02-15T17:45:18.438Z,98366.88
2023-02-15T17:48:06.677Z,98368.84
2023-02-15T17:50:54.396Z,98381.22
2023-02-15T17:53:40.699Z,98376.78
2023-02-15T17:56:27.049Z,98374.06
2023-02-15T17:59:14.515Z,98371.47
2023-02-15T18:02:18.929Z,98374.88
2023-02-15T18:05:24.360Z,98375.41
2023-02-15T18:08:34.234Z,98366.47
2023-02-15T18:11:37.734Z,98370.75
2023-02-15T18:14:23.792Z,98375.97
2023-02-15T18:17:13.236Z,98371.69
2023-02-15T18:20:01.504Z,98362.06
2023-02-15T18:22:47.192Z,98357.00
2023-02-15T18:25:33.089Z,98351.22
2023-02-15T18:28:18.960Z,98344.34
2023-02-15T18:31:05.777Z,98346.31
2023-02-15T18:33:57.524Z,98349.72
2023-02-15T18:36:45.637Z,98349.19
2023-02-15T18:39:40.589Z,98343.56
2023-02-15T18:42:37.009Z,98349.91
2023-02-15T18:45:36.291Z,98345.91
2023-02-15T18:48:21.526Z,98339.19
2023-02-15T18:51:22.063Z,98337.56
2023-02-15T18:54:18.064Z,98333.31
2023-02-15T18:57:04.287Z,98333.56
2023-02-15T18:59:50.390Z,98334.69
2023-02-15T19:02:36.364Z,98355.69
2023-02-15T19:05:23.157Z,98358.47
2023-02-15T19:08:19.890Z,98356.81
2023-02-15T19:11:05.570Z,98353.66
2023-02-15T19:13:52.770Z,98349.41
2023-02-15T19:16:38.759Z,98343.38
2023-02-15T19:19:24.678Z,98347.75
2023-02-15T19:22:18.398Z,98352.16
2023-02-15T19:25:05.810Z,98352.97
2023-02-15T19:27:51.960Z,98358.47
2023-02-15T19:30:38.357Z,98356.13
2023-02-15T19:33:24.120Z,98360.00
2023-02-15T19:36:18.520Z,98366.88
2023-02-15T19:39:03.960Z,98359.03
2023-02-15T19:41:49.917Z,98358.34
2023-02-15T19:44:35.485Z,98360.09
2023-02-15T19:47:22.487Z,98349.97
2023-02-15T19:50:19.164Z,98356.84
2023-02-15T19:53:05.242Z,98359.28
2023-02-15T19:55:51.616Z,98361.09
2023-02-15T19:58:37.411Z,98363.97
2023-02-15T20:01:23.542Z,98357.09
2023-02-15T20:04:09.391Z,98350.38
2023-02-15T20:06:57.524Z,98347.75
2023-02-15T20:09:43.953Z,98347.91
2023-02-15T20:12:30.414Z,98352.44
2023-02-15T20:15:24.846Z,98352.56
2023-02-15T20:18:11.464Z,98359.03
2023-02-15T20:20:57.626Z,98354.22
2023-02-15T20:23:43.678Z,98351.34
2023-02-15T20:26:31.477Z,98349.03
2023-02-15T20:29:18.930Z,98345.72
2023-02-15T20:32:04.734Z,98341.44
2023-02-15T20:34:50.229Z,98329.66
2023-02-15T20:37:35.810Z,98330.75
2023-02-15T20:40:30.580Z,98331.03
2023-02-15T20:43:16.303Z,98328.41
2023-02-15T20:46:02.769Z,98334.59
2023-02-15T20:48:48.798Z,98331.31
2023-02-15T20:51:34.376Z,98332.53
2023-02-15T20:54:40.582Z,98329.34
2023-02-15T20:57:26.114Z,98320.88
2023-02-15T21:00:24.085Z,98326.09
2023-02-15T21:03:13.761Z,98324.44
2023-02-15T21:05:59.921Z,98330.59
2023-02-15T21:08:45.440Z,98330.59
2023-02-15T21:11:31.018Z,98321.13
2023-02-15T21:14:21.798Z,98324.56
2023-02-15T21:17:07.506Z,98310.72
2023-02-15T21:19:53.097Z,98312.63
2023-02-15T21:22:41.086Z,98314.25
2023-02-15T21:25:34.208Z,98323.03
2023-02-15T21:28:22.521Z,98318.94
2023-02-15T21:31:20.088Z,98315.75
2023-02-15T21:34:05.853Z,98308.22
2023-02-15T21:36:51.678Z,98307.53
2023-02-15T21:39:37.441Z,98304.25
2023-02-15T21:42:41.887Z,98311.09
2023-02-15T21:45:46.395Z,98307.94
2023-02-15T21:48:32.190Z,98313.16
2023-02-15T21:51:37.116Z,98308.38
2023-02-15T21:54:22.667Z,98306.84
2023-02-15T21:57:14.325Z,98303.81
2023-02-15T22:00:00.144Z,98306.84
2023-02-15T22:02:48.855Z,98303.53
2023-02-15T22:05:34.834Z,98297.47
2023-02-15T22:08:20.596Z,98301.88
2023-02-15T22:11:13.247Z,98302.84
2023-02-15T22:13:59.391Z,98296.81
2023-02-15T22:16:45.015Z,98298.56
2023-02-15T22:19:30.962Z,98294.47
2023-02-15T22:22:17.155Z,98290.09
2023-02-15T22:25:02.633Z,98287.59
2023-02-15T22:27:49.622Z,98288.44
2023-02-15T22:30:37.154Z,98286.94
2023-02-15T22:33:26.787Z,98282.69
2023-02-15T22:36:28.166Z,98285.13
2023-02-15T22:39:13.732Z,98281.84
2023-02-15T22:41:59.475Z,98285.41
2023-02-15T22:44:45.347Z,98281.16
2023-02-15T22:47:32.385Z,98282.13
2023-02-15T22:50:24.210Z,98281.97
2023-02-15T22:53:09.896Z,98273.91
2023-02-15T22:55:56.381Z,98276.63
2023-02-15T22:58:42.791Z,98276.75
2023-02-15T23:01:32.432Z,98273.59
2023-02-15T23:04:21.357Z,98277.88
2023-02-15T23:07:13.317Z,98275.25
2023-02-15T23:09:58.817Z,98270.03
2023-02-15T23:13:02.933Z,98278.56
2023-02-15T23:15:51.302Z,98271.69
2023-02-15T23:18:39.687Z,98275.25
2023-02-15T23:21:31.900Z,98266.50
2023-02-15T23:24:20.597Z,98263.88
2023-02-15T23:27:24.754Z,98265.13
2023-02-15T23:30:14.897Z,98260.56
2023-02-15T23:33:00.377Z,98256.31
2023-02-15T23:35:46.363Z,98256.59
2023-02-15T23:38:33.447Z,98260.16
2023-02-15T23:41:24.481Z,98261.94
2023-02-15T23:44:12.601Z,98257.69
2023-02-15T23:46:58.651Z,98261.78
2023-02-15T23:49:44.016Z,98256.31
2023-02-15T23:52:29.742Z,98253.59
2023-02-15T23:55:16.186Z,98255.91
2023-02-15T23:58:03.509Z,98257.00
